Time;durP1;ratioP1;P1;durP2;ratioP2;P2;SDS_P1;SDS_P2;PMS_P1;PMS_P2;Temp;Humidity;BMP_temperature;BMP_pressure;BME280_temperature;BME280_humidity;BME280_pressure;Samples;Min_cycle;Max_cycle;Signal;HPM_P1;HPM_P2
2023/12/21 00:01:39;;;;;;;13.20;6.35;;;;;;;9.87;100.00;100563.63;3614544;39;20112;-65
2023/12/21 00:04:06;;;;;;;14.60;6.30;;;;;;;9.87;100.00;100569.00;3612946;39;20073;-65
2023/12/21 00:06:32;;;;;;;11.55;5.93;;;;;;;9.87;100.00;100568.16;3610027;39;20055;-65
2023/12/21 00:08:58;;;;;;;13.27;6.47;;;;;;;9.88;100.00;100553.75;3606222;39;20280;-65
2023/12/21 00:11:23;;;;;;;13.02;6.10;;;;;;;9.87;100.00;100547.53;3606513;39;20293;-65
2023/12/21 00:13:49;;;;;;;12.90;6.57;;;;;;;9.88;100.00;100529.59;3606223;39;20059;-65
2023/12/21 00:16:16;;;;;;;10.57;6.57;;;;;;;9.88;100.00;100529.59;3606718;39;20058;-65
2023/12/21 00:18:42;;;;;;;13.98;7.30;;;;;;;9.88;100.00;100527.75;3608889;39;20058;-65
2023/12/21 00:21:08;;;;;;;12.55;6.82;;;;;;;9.89;100.00;100517.88;3609008;39;20315;-65
2023/12/21 00:23:34;;;;;;;12.55;6.70;;;;;;;9.85;100.00;100511.00;3606470;39;20077;-65
2023/12/21 00:26:00;;;;;;;14.30;7.25;;;;;;;9.90;100.00;100511.56;3607818;39;20058;-65
2023/12/21 00:28:25;;;;;;;11.18;6.50;;;;;;;9.86;100.00;100508.19;3604738;39;20418;-65
2023/12/21 00:30:51;;;;;;;13.57;6.78;;;;;;;9.71;100.00;100485.91;3607467;39;20062;-66
2023/12/21 00:33:16;;;;;;;14.27;6.82;;;;;;;9.88;100.00;100500.91;3606670;39;20082;-65
2023/12/21 00:35:42;;;;;;;12.50;7.35;;;;;;;9.88;100.00;100490.19;3606475;39;20060;-65
2023/12/21 00:38:07;;;;;;;12.52;7.05;;;;;;;9.88;100.00;100489.31;3608008;39;20450;-65
2023/12/21 00:40:33;;;;;;;12.88;7.38;;;;;;;9.88;100.00;100490.19;3606364;39;20066;-65
2023/12/21 00:42:59;;;;;;;12.15;7.25;;;;;;;9.88;100.00;100484.81;3603853;39;20051;-65
2023/12/21 00:45:25;;;;;;;14.10;8.00;;;;;;;9.88;100.00;100482.13;3605714;39;20051;-65
2023/12/21 00:47:50;;;;;;;15.18;7.38;;;;;;;9.87;100.00;100474.19;3608534;39;20380;-66
2023/12/21 00:50:16;;;;;;;11.15;7.00;;;;;;;9.90;100.00;100461.41;3597862;39;20058;-65
2023/12/21 00:52:42;;;;;;;13.75;7.50;;;;;;;9.90;100.00;100453.34;3608801;39;20318;-65
2023/12/21 00:55:08;;;;;;;9.82;7.40;;;;;;;9.89;100.00;100448.06;3605943;39;20063;-65
2023/12/21 00:57:33;;;;;;;18.33;8.55;;;;;;;9.70;100.00;100416.19;3608947;39;20102;-65
2023/12/21 00:59:59;;;;;;;11.60;7.97;;;;;;;9.86;100.00;100441.06;3608865;39;20066;-65
2023/12/21 01:02:25;;;;;;;14.63;8.10;;;;;;;9.86;100.00;100443.75;3608991;39;20334;-66
2023/12/21 01:04:51;;;;;;;13.27;7.93;;;;;;;9.86;100.00;100443.75;3608929;39;20376;-66
2023/12/21 01:07:16;;;;;;;14.73;8.27;;;;;;;9.86;100.00;100424.09;3606416;39;20060;-65
2023/12/21 01:09:42;;;;;;;11.20;6.68;;;;;;;9.87;100.00;100418.66;3608652;39;20058;-65
2023/12/21 01:12:08;;;;;;;10.80;7.60;;;;;;;9.85;100.00;100412.50;3604347;39;20061;-66
2023/12/21 01:14:34;;;;;;;12.23;7.25;;;;;;;9.86;100.00;100416.06;3605207;39;20096;-65
2023/12/21 01:16:59;;;;;;;17.45;7.55;;;;;;;9.85;100.00;100404.47;3608170;39;20059;-66
2023/12/21 01:19:26;;;;;;;13.05;8.00;;;;;;;9.85;100.00;100399.09;3608224;39;20059;-65
2023/12/21 01:21:52;;;;;;;15.77;7.30;;;;;;;9.87;100.00;100389.13;3606367;39;20051;-66
2023/12/21 01:24:18;;;;;;;10.52;6.93;;;;;;;9.90;100.00;100406.88;3610409;39;20046;-66
2023/12/21 01:26:44;;;;;;;11.13;7.25;;;;;;;9.90;100.00;100418.47;3610162;39;20051;-65
2023/12/21 01:29:09;;;;;;;17.63;7.80;;;;;;;9.89;100.00;100403.28;3608032;39;20120;-66
2023/12/21 01:31:35;;;;;;;12.95;6.68;;;;;;;9.89;100.00;100399.75;3608786;39;20433;-66
2023/12/21 01:34:05;;;;;;;13.00;7.03;;;;;;;9.89;100.00;100399.75;3610811;39;20058;-65
2023/12/21 01:36:31;;;;;;;13.45;7.05;;;;;;;9.88;100.00;100390.84;3608051;39;20043;-66
2023/12/21 01:38:57;;;;;;;13.00;7.20;;;;;;;9.89;100.00;100384.50;3610284;39;20410;-66
2023/12/21 01:41:23;;;;;;;10.77;7.28;;;;;;;9.88;100.00;100373.88;3611107;39;20051;-65
2023/12/21 01:43:49;;;;;;;11.27;7.28;;;;;;;9.88;100.00;100382.78;3610464;39;20374;-66
2023/12/21 01:46:15;;;;;;;12.18;7.40;;;;;;;9.90;100.00;100378.19;3610132;39;20059;-66
2023/12/21 01:48:43;;;;;;;14.18;8.25;;;;;;;9.89;100.00;100384.50;3608001;39;20059;-65
2023/12/21 01:51:11;;;;;;;14.55;7.97;;;;;;;9.87;100.00;100381.06;3608141;39;20051;-66
2023/12/21 01:53:39;;;;;;;15.98;8.60;;;;;;;9.67;100.00;100331.41;3610035;39;20119;-66
2023/12/21 01:56:06;;;;;;;12.95;9.10;;;;;;;9.86;100.00;100357.84;3606431;39;20055;-66
2023/12/21 01:58:33;;;;;;;12.05;8.32;;;;;;;9.77;100.00;100339.69;3609519;39;20377;-66
2023/12/21 02:00:58;;;;;;;15.07;9.13;;;;;;;9.87;100.00;100359.59;3608087;39;20047;-66
2023/12/21 02:03:28;;;;;;;15.05;9.40;;;;;;;9.86;100.00;100360.53;3605730;39;20108;-66
2023/12/21 02:05:53;;;;;;;15.65;9.52;;;;;;;9.87;100.00;100367.66;3609087;39;20051;-66
2023/12/21 02:08:19;;;;;;;15.45;9.57;;;;;;;9.86;100.00;100367.72;3608102;39;20066;-66
2023/12/21 02:10:46;;;;;;;12.57;9.77;;;;;;;9.91;100.00;100377.22;3605573;39;20124;-65
2023/12/21 02:13:12;;;;;;;19.02;9.90;;;;;;;9.91;100.00;100371.00;3606669;39;20099;-66
2023/12/21 02:15:38;;;;;;;16.83;9.77;;;;;;;9.92;100.00;100367.31;3605261;39;20424;-66
2023/12/21 02:18:07;;;;;;;19.33;10.25;;;;;;;9.89;100.00;100360.34;3606346;39;20051;-66
2023/12/21 02:20:33;;;;;;;13.52;9.65;;;;;;;9.81;100.00;100327.78;3605882;39;20046;-66
2023/12/21 02:23:03;;;;;;;16.65;10.30;;;;;;;9.73;100.00;100330.09;3605146;39;20059;-66
2023/12/21 02:25:31;;;;;;;14.38;10.35;;;;;;;9.91;100.00;100355.72;3605001;39;20051;-66
2023/12/21 02:27:56;;;;;;;16.98;9.65;;;;;;;9.91;100.00;100350.38;3605972;39;20054;-65
2023/12/21 02:30:22;;;;;;;16.45;9.80;;;;;;;9.91;100.00;100341.47;3604578;39;20311;-66
2023/12/21 02:32:48;;;;;;;20.15;10.32;;;;;;;9.92;100.00;100335.97;3607321;39;20054;-65
2023/12/21 02:35:15;;;;;;;19.50;9.93;;;;;;;9.89;100.00;100305.78;3606720;39;20314;-66
2023/12/21 02:37:40;;;;;;;20.13;9.98;;;;;;;9.91;100.00;100312.78;3604527;39;20055;-66
2023/12/21 02:40:06;;;;;;;15.60;10.07;;;;;;;9.91;100.00;100317.28;3606027;39;20061;-66
2023/12/21 02:42:32;;;;;;;15.15;10.25;;;;;;;9.90;100.00;100313.75;3606281;39;20059;-66
2023/12/21 02:44:57;;;;;;;14.80;9.82;;;;;;;9.88;100.00;100302.25;3605374;39;20039;-66
2023/12/21 02:47:23;;;;;;;16.08;10.20;;;;;;;9.88;100.00;100294.19;3605688;39;20411;-66
2023/12/21 02:49:49;;;;;;;14.70;9.82;;;;;;;9.90;100.00;100294.09;3606993;39;20094;-66
2023/12/21 02:52:14;;;;;;;19.02;10.07;;;;;;;9.91;100.00;100307.41;3605159;39;20047;-66
2023/12/21 02:54:40;;;;;;;15.68;8.77;;;;;;;9.87;100.00;100300.53;3604314;39;20051;-66
2023/12/21 02:57:05;;;;;;;14.75;9.60;;;;;;;9.89;100.00;100306.63;3604965;39;20065;-66
2023/12/21 02:59:31;;;;;;;16.08;8.63;;;;;;;9.86;100.00;100290.75;3604216;39;20059;-66
2023/12/21 03:01:56;;;;;;;15.93;8.90;;;;;;;9.71;100.00;100257.75;3604349;39;20044;-66
2023/12/21 03:04:22;;;;;;;15.63;8.23;;;;;;;9.91;100.00;100294.00;3595326;39;20353;-66
2023/12/21 03:06:48;;;;;;;16.55;8.70;;;;;;;9.91;100.00;100291.31;3606698;39;20047;-65
2023/12/21 03:09:13;;;;;;;17.83;8.93;;;;;;;9.90;100.00;100284.22;3605151;39;20061;-65
2023/12/21 03:11:39;;;;;;;16.25;8.35;;;;;;;9.90;100.00;100284.22;3605203;39;20062;-65
2023/12/21 03:14:04;;;;;;;16.25;8.48;;;;;;;9.92;100.00;100276.91;3606327;39;20291;-64
2023/12/21 03:16:30;;;;;;;17.60;8.98;;;;;;;9.90;100.00;100265.44;3609371;39;20059;-65
2023/12/21 03:18:55;;;;;;;14.73;8.05;;;;;;;9.91;100.00;100244.81;3609602;39;20272;-65
2023/12/21 03:21:21;;;;;;;22.90;10.73;;;;;;;9.90;100.00;100221.63;3614669;39;20062;-65
2023/12/21 03:23:46;;;;;;;16.45;8.15;;;;;;;9.89;100.00;100212.69;3613251;39;20345;-64
2023/12/21 03:26:13;;;;;;;20.30;7.03;;;;;;;9.89;100.00;100201.94;3610162;39;20047;-64
2023/12/21 03:28:44;;;;;;;13.35;7.20;;;;;;;9.87;100.00;100182.41;3609188;39;20445;-65
2023/12/21 03:31:10;;;;;;;17.25;6.90;;;;;;;9.92;100.00;100185.63;3610527;39;20053;-65
2023/12/21 03:33:36;;;;;;;14.05;6.63;;;;;;;9.93;100.00;100197.25;3608381;39;20078;-65
2023/12/21 03:36:03;;;;;;;20.38;6.60;;;;;;;9.93;100.00;100192.72;3609304;39;20058;-65
2023/12/21 03:38:28;;;;;;;13.80;6.43;;;;;;;9.94;100.00;100185.53;3605860;39;20055;-65
2023/12/21 03:40:54;;;;;;;14.63;6.82;;;;;;;9.96;100.00;100187.16;3604736;39;20055;-64
2023/12/21 03:43:20;;;;;;;17.13;6.43;;;;;;;9.96;100.00;100178.25;3605280;39;20055;-65
2023/12/21 03:45:46;;;;;;;16.23;6.50;;;;;;;9.94;100.00;100164.91;3606334;39;20047;-64
2023/12/21 03:48:11;;;;;;;17.55;5.90;;;;;;;9.94;100.00;100164.06;3604215;39;20345;-66
2023/12/21 03:50:37;;;;;;;18.77;6.38;;;;;;;9.95;100.00;100155.03;3605218;39;20047;-66
2023/12/21 03:53:03;;;;;;;17.05;7.07;;;;;;;9.88;100.00;100132.25;3605857;39;20063;-66
2023/12/21 03:55:30;;;;;;;15.68;6.75;;;;;;;9.95;100.00;100147.81;3607512;39;20087;-66
2023/12/21 03:57:56;;;;;;;20.20;7.70;;;;;;;9.95;100.00;100153.19;3606216;39;20042;-66
2023/12/21 04:00:23;;;;;;;18.13;7.63;;;;;;;9.95;100.00;100147.81;3606479;39;20110;-66
2023/12/21 04:02:48;;;;;;;18.17;7.53;;;;;;;9.96;100.00;100144.19;3606596;39;20059;-66
2023/12/21 04:05:14;;;;;;;24.90;8.57;;;;;;;9.97;100.00;100127.09;3606222;39;20058;-66
2023/12/21 04:07:40;;;;;;;19.55;8.80;;;;;;;9.98;100.00;100128.81;3604540;39;20148;-65
2023/12/21 04:10:07;;;;;;;20.27;8.23;;;;;;;9.94;100.00;100121.94;3605069;39;20047;-66
2023/12/21 04:12:32;;;;;;;19.90;8.55;;;;;;;10.01;100.00;100130.44;3605708;39;20087;-66
2023/12/21 04:14:58;;;;;;;20.75;9.02;;;;;;;10.02;100.00;100136.66;3607566;39;20059;-66
2023/12/21 04:17:24;;;;;;;15.70;7.55;;;;;;;10.08;100.00;100114.75;3606697;39;20066;-66
2023/12/21 04:19:51;;;;;;;22.13;9.05;;;;;;;10.07;100.00;100113.88;3599877;39;20455;-66
2023/12/21 04:22:17;;;;;;;21.77;9.32;;;;;;;10.06;100.00;100108.63;3605589;39;20055;-65
2023/12/21 04:24:44;;;;;;;18.83;8.68;;;;;;;10.09;100.00;100092.31;3606042;39;20051;-66
2023/12/21 04:27:10;;;;;;;23.77;9.82;;;;;;;10.09;100.00;100086.94;3604972;39;20047;-66
2023/12/21 04:29:37;;;;;;;21.95;9.68;;;;;;;10.10;100.00;100081.44;3605311;39;20059;-66
2023/12/21 04:32:04;;;;;;;15.82;8.75;;;;;;;10.11;100.00;100077.78;3604708;39;20048;-66
2023/12/21 04:34:30;;;;;;;22.33;10.02;;;;;;;10.15;100.00;100084.66;3610024;39;20445;-66
2023/12/21 04:36:55;;;;;;;24.52;10.07;;;;;;;10.17;100.00;100071.13;3603846;39;20055;-66
2023/12/21 04:39:21;;;;;;;26.00;10.40;;;;;;;10.17;100.00;100069.28;3604962;39;20055;-66
2023/12/21 04:41:46;;;;;;;20.92;10.43;;;;;;;10.20;100.00;100038.66;3605040;39;20065;-66
2023/12/21 04:44:12;;;;;;;20.98;10.45;;;;;;;10.21;100.00;100041.25;3604556;39;20392;-66
2023/12/21 04:46:38;;;;;;;21.13;10.48;;;;;;;10.27;100.00;100041.78;3605357;39;20051;-66
2023/12/21 04:49:03;;;;;;;21.05;10.35;;;;;;;10.28;100.00;100040.84;3609081;39;20065;-65
2023/12/21 04:51:29;;;;;;;17.73;9.98;;;;;;;10.30;100.00;100046.94;3611094;39;20055;-65
2023/12/21 04:53:54;;;;;;;18.98;8.95;;;;;;;10.36;100.00;100028.53;3608811;39;20059;-65
2023/12/21 04:56:20;;;;;;;12.88;8.57;;;;;;;10.40;100.00;100023.78;3605098;39;20039;-65
2023/12/21 04:58:45;;;;;;;18.58;8.70;;;;;;;10.40;100.00;100015.72;3605732;39;20326;-65
2023/12/21 05:01:11;;;;;;;17.67;8.65;;;;;;;10.40;100.00;100002.28;3607890;39;20051;-65
2023/12/21 05:03:37;;;;;;;21.33;8.57;;;;;;;10.40;100.00;100000.50;3606884;39;20058;-66
2023/12/21 05:06:02;;;;;;;17.13;7.88;;;;;;;10.42;100.00;99987.78;3606057;39;20086;-65
2023/12/21 05:08:29;;;;;;;19.27;8.30;;;;;;;10.37;100.00;99970.28;3607069;39;20155;-65
2023/12/21 05:10:55;;;;;;;14.05;7.00;;;;;;;10.45;100.00;99975.97;3608899;39;20082;-65
2023/12/21 05:13:21;;;;;;;17.88;7.55;;;;;;;10.49;100.00;99992.69;3606859;39;20070;-65
2023/12/21 05:15:47;;;;;;;19.55;7.07;;;;;;;10.44;100.00;99976.94;3608562;39;20088;-65
2023/12/21 05:18:12;;;;;;;14.57;6.80;;;;;;;10.54;99.77;99988.72;3605815;39;20047;-66
2023/12/21 05:20:38;;;;;;;18.92;6.57;;;;;;;10.54;99.86;99987.84;3606959;39;20070;-65
2023/12/21 05:23:04;;;;;;;14.07;6.20;;;;;;;10.53;99.79;99992.38;3605928;39;20047;-66
2023/12/21 05:25:29;;;;;;;13.85;6.60;;;;;;;10.56;99.50;99999.31;3606608;39;20132;-66
2023/12/21 05:27:55;;;;;;;16.23;6.03;;;;;;;10.58;99.80;100000.06;3608780;39;20307;-65
2023/12/21 05:30:21;;;;;;;11.63;5.47;;;;;;;10.59;99.68;99972.22;3606911;39;20292;-65
2023/12/21 05:32:47;;;;;;;13.40;5.55;;;;;;;10.57;99.04;99956.22;3606147;39;20108;-66
2023/12/21 05:35:13;;;;;;;14.70;5.93;;;;;;;10.59;99.39;99948.03;3606894;39;20056;-65
2023/12/21 05:37:39;;;;;;;10.60;5.10;;;;;;;10.59;99.32;99956.09;3606226;39;20059;-65
2023/12/21 05:40:06;;;;;;;14.90;5.15;;;;;;;10.60;98.67;99960.53;3605507;39;20059;-65
2023/12/21 05:42:31;;;;;;;12.90;4.57;;;;;;;10.63;98.26;99961.13;3606725;39;20051;-66
2023/12/21 05:44:58;;;;;;;11.32;4.63;;;;;;;10.63;98.38;99944.16;3609814;39;20158;-66
2023/12/21 05:47:24;;;;;;;9.95;3.83;;;;;;;10.66;98.31;99965.44;3605559;39;20043;-66
2023/12/21 05:49:49;;;;;;;9.23;3.45;;;;;;;10.69;97.34;99963.34;3605297;39;20402;-65
2023/12/21 05:52:15;;;;;;;10.70;3.75;;;;;;;10.74;97.32;99962.16;3607831;39;20137;-65
2023/12/21 05:54:41;;;;;;;9.45;3.50;;;;;;;10.76;96.91;99966.44;3606910;39;20051;-66
2023/12/21 05:57:10;;;;;;;9.00;3.50;;;;;;;10.75;96.84;99959.34;3610535;39;20058;-66
2023/12/21 05:59:37;;;;;;;8.63;3.42;;;;;;;10.76;97.24;99958.38;3606449;39;20054;-65
2023/12/21 06:02:03;;;;;;;11.15;3.78;;;;;;;10.80;97.50;99977.81;3607641;39;20303;-66
2023/12/21 06:04:30;;;;;;;10.75;3.85;;;;;;;10.78;97.59;99961.78;3607244;39;20051;-66
2023/12/21 06:06:56;;;;;;;9.48;3.65;;;;;;;10.77;97.88;99949.31;3608711;39;20059;-65
2023/12/21 06:09:22;;;;;;;10.13;4.10;;;;;;;10.75;98.22;99964.72;3604794;39;20055;-65
2023/12/21 06:11:48;;;;;;;7.15;3.80;;;;;;;10.72;98.80;99962.28;3608970;39;20049;-65
2023/12/21 06:14:14;;;;;;;8.63;4.32;;;;;;;10.67;99.54;99948.31;3607109;39;20052;-65
2023/12/21 06:16:39;;;;;;;13.27;4.75;;;;;;;10.63;100.00;99941.47;3605995;39;20383;-65
2023/12/21 06:19:09;;;;;;;17.30;5.63;;;;;;;10.60;100.00;99939.03;3604943;39;20048;-65
2023/12/21 06:21:38;;;;;;;9.88;5.50;;;;;;;10.57;100.00;99925.81;3604567;39;20050;-65
2023/12/21 06:24:06;;;;;;;12.82;5.45;;;;;;;10.50;100.00;99905.72;3606207;39;20063;-65
2023/12/21 06:26:38;;;;;;;13.77;5.90;;;;;;;10.52;100.00;99903.78;3609387;39;20047;-65
2023/12/21 06:29:03;;;;;;;12.23;6.43;;;;;;;10.50;100.00;99889.63;3609132;39;20051;-66
2023/12/21 06:31:29;;;;;;;13.50;6.03;;;;;;;10.48;100.00;99896.97;3605080;39;20050;-65
2023/12/21 06:33:55;;;;;;;14.02;6.53;;;;;;;10.48;100.00;99905.00;3606533;39;20330;-65
2023/12/21 06:36:20;;;;;;;12.85;6.00;;;;;;;10.48;100.00;99907.69;3606846;39;20055;-65
2023/12/21 06:38:46;;;;;;;15.95;6.53;;;;;;;10.44;100.00;99912.47;3604642;39;20051;-65
2023/12/21 06:41:13;;;;;;;12.25;6.45;;;;;;;10.47;100.00;99900.63;3609838;39;20304;-65
2023/12/21 06:43:39;;;;;;;12.60;6.07;;;;;;;10.40;100.00;99889.47;3603554;39;20394;-65
2023/12/21 06:46:14;;;;;;;11.65;5.80;;;;;;;10.47;100.00;99895.25;3605139;39;20051;-65
2023/12/21 06:48:41;;;;;;;14.50;6.03;;;;;;;10.50;100.00;99905.72;3605586;39;20668;-65
2023/12/21 06:51:08;;;;;;;13.82;5.72;;;;;;;10.50;100.00;99895.88;3606207;39;20047;-65
2023/12/21 06:53:33;;;;;;;9.65;5.07;;;;;;;10.54;100.00;99896.50;3606983;39;20071;-66
2023/12/21 06:56:00;;;;;;;11.90;5.97;;;;;;;10.52;100.00;99887.69;3605323;39;20066;-65
2023/12/21 06:58:27;;;;;;;17.33;5.43;;;;;;;10.51;100.00;99864.47;3606346;39;20111;-65
2023/12/21 07:00:53;;;;;;;12.80;5.25;;;;;;;10.50;100.00;99860.06;3605120;39;20055;-65
2023/12/21 07:03:18;;;;;;;10.32;4.70;;;;;;;10.51;100.00;99840.28;3606620;39;20043;-65
2023/12/21 07:05:44;;;;;;;11.55;4.75;;;;;;;10.52;100.00;99845.53;3605791;39;20051;-65
2023/12/21 07:08:09;;;;;;;14.05;4.70;;;;;;;10.53;100.00;99835.63;3605551;39;20062;-65
2023/12/21 07:10:35;;;;;;;12.00;4.68;;;;;;;10.51;100.00;99827.72;3607677;39;20050;-65
2023/12/21 07:13:01;;;;;;;10.95;4.72;;;;;;;10.54;100.00;99823.94;3607110;39;20633;-65
2023/12/21 07:15:26;;;;;;;11.13;4.40;;;;;;;10.55;100.00;99818.44;3607131;39;20062;-65
2023/12/21 07:17:52;;;;;;;8.52;4.53;;;;;;;10.55;100.00;99823.81;3606182;39;20391;-65
2023/12/21 07:20:21;;;;;;;12.13;4.55;;;;;;;10.56;100.00;99821.97;3607030;39;20055;-65
2023/12/21 07:22:46;;;;;;;15.00;5.40;;;;;;;10.58;100.00;99828.94;3607087;39;20047;-65
2023/12/21 07:25:12;;;;;;;7.55;4.18;;;;;;;10.18;100.00;99748.75;3609307;39;20047;-65
2023/12/21 07:27:38;;;;;;;9.63;4.43;;;;;;;10.62;100.00;99808.06;3608207;39;20043;-65
2023/12/21 07:30:04;;;;;;;9.43;3.95;;;;;;;10.64;100.00;99796.22;3604001;39;20051;-65
2023/12/21 07:32:30;;;;;;;13.10;4.03;;;;;;;10.66;100.00;99788.03;3605626;39;20055;-65
2023/12/21 07:34:55;;;;;;;12.75;4.15;;;;;;;10.70;100.00;99786.81;3605414;39;20518;-65
2023/12/21 07:37:22;;;;;;;8.68;3.30;;;;;;;10.72;100.00;99776.81;3609369;39;20192;-65
2023/12/21 07:39:47;;;;;;;6.57;3.10;;;;;;;10.75;100.00;99770.31;3606651;39;20050;-65
2023/12/21 07:42:13;;;;;;;11.27;3.78;;;;;;;10.76;99.90;99751.38;3605197;39;20047;-65
2023/12/21 07:44:39;;;;;;;8.40;2.80;;;;;;;10.79;99.32;99755.66;3604690;39;20043;-65
2023/12/21 07:47:04;;;;;;;9.32;2.80;;;;;;;10.85;98.61;99761.41;3607082;39;20063;-65
2023/12/21 07:49:30;;;;;;;14.20;3.20;;;;;;;10.88;98.25;99765.69;3606763;39;20073;-65
2023/12/21 07:51:55;;;;;;;6.50;2.67;;;;;;;10.88;98.14;99771.06;3603717;39;20083;-65
2023/12/21 07:54:21;;;;;;;8.93;3.03;;;;;;;10.92;98.22;99761.75;3608286;39;20059;-65
2023/12/21 07:56:47;;;;;;;9.38;2.83;;;;;;;10.90;97.72;99758.34;3605500;39;20055;-66
2023/12/21 07:59:13;;;;;;;10.85;3.13;;;;;;;10.89;98.57;99762.88;3604968;39;20047;-66
2023/12/21 08:01:39;;;;;;;7.72;3.00;;;;;;;10.87;98.95;99756.75;3605367;39;20395;-66
2023/12/21 08:04:08;;;;;;;5.93;2.83;;;;;;;10.84;99.55;99756.13;3604785;39;20057;-66
2023/12/21 08:06:33;;;;;;;9.07;3.15;;;;;;;10.82;100.00;99748.22;3606664;39;20055;-66
2023/12/21 08:08:59;;;;;;;7.45;3.05;;;;;;;10.80;100.00;99762.75;3603797;39;20077;-66
2023/12/21 08:11:24;;;;;;;8.02;3.33;;;;;;;10.76;100.00;99743.31;3605260;39;20384;-66
2023/12/21 08:13:51;;;;;;;8.48;3.30;;;;;;;10.75;100.00;99744.31;3605659;39;20061;-66
2023/12/21 08:16:17;;;;;;;6.38;3.10;;;;;;;10.74;100.00;99739.88;3605405;39;20043;-66
2023/12/21 08:18:44;;;;;;;8.52;3.33;;;;;;;10.74;100.00;99753.34;3606669;39;20380;-66
2023/12/21 08:21:10;;;;;;;6.35;3.22;;;;;;;10.72;100.00;99735.59;3605071;39;20407;-66
2023/12/21 08:23:36;;;;;;;6.70;2.67;;;;;;;10.72;100.00;99728.44;3606723;39;20274;-66
2023/12/21 08:26:03;;;;;;;8.93;3.20;;;;;;;10.66;100.00;99712.78;3604617;39;20639;-66
2023/12/21 08:28:30;;;;;;;7.15;3.45;;;;;;;10.71;100.00;99709.72;3605741;39;20047;-67
2023/12/21 08:30:56;;;;;;;7.97;5.28;;;;;;;10.72;100.00;99716.78;3605600;39;20047;-66
2023/12/21 08:33:22;;;;;;;8.70;4.63;;;;;;;10.73;100.00;99714.00;3607114;39;20051;-65
2023/12/21 08:35:48;;;;;;;9.77;4.55;;;;;;;10.71;100.00;99718.63;3608028;39;20425;-66
2023/12/21 08:38:13;;;;;;;9.25;3.10;;;;;;;10.70;100.00;99719.63;3607563;39;20051;-66
2023/12/21 08:40:39;;;;;;;4.53;2.38;;;;;;;10.72;100.00;99706.94;3609368;39;20055;-67
2023/12/21 08:43:05;;;;;;;4.95;2.70;;;;;;;10.71;100.00;99709.72;3606764;39;20051;-67
2023/12/21 08:45:32;;;;;;;6.10;3.00;;;;;;;10.71;100.00;99724.00;3607115;39;20331;-67
2023/12/21 08:47:57;;;;;;;8.40;2.88;;;;;;;10.71;100.00;99724.00;3610074;39;20063;-67
2023/12/21 08:50:24;;;;;;;4.68;3.13;;;;;;;10.69;100.00;99718.78;3609218;39;20062;-67
2023/12/21 08:52:50;;;;;;;6.63;2.85;;;;;;;10.73;100.00;99705.94;3607921;39;20049;-66
2023/12/21 08:55:16;;;;;;;7.72;3.38;;;;;;;10.74;100.00;99709.47;3606585;39;20043;-65
2023/12/21 08:57:41;;;;;;;6.25;3.10;;;;;;;10.73;100.00;99695.19;3606029;39;20078;-66
2023/12/21 09:00:12;;;;;;;7.50;2.97;;;;;;;10.74;100.00;99675.38;3609101;39;20292;-66
2023/12/21 09:02:38;;;;;;;6.38;2.92;;;;;;;10.78;100.00;99695.66;3609694;39;20384;-66
2023/12/21 09:05:05;;;;;;;5.13;2.70;;;;;;;10.81;100.00;99684.66;3606571;39;20062;-65
2023/12/21 09:07:31;;;;;;;7.05;2.80;;;;;;;10.80;100.00;99680.25;3607096;39;20051;-66
2023/12/21 09:09:57;;;;;;;6.93;3.00;;;;;;;10.83;100.00;99685.38;3608914;39;20254;-66
2023/12/21 09:12:22;;;;;;;4.68;2.72;;;;;;;10.76;100.00;99657.31;3606726;39;20062;-65
2023/12/21 09:14:48;;;;;;;4.45;2.55;;;;;;;10.87;100.00;99684.16;3608843;39;20346;-65
2023/12/21 09:17:18;;;;;;;9.00;2.80;;;;;;;10.89;100.00;99679.50;3607046;39;20051;-65
2023/12/21 09:19:44;;;;;;;5.00;2.70;;;;;;;10.94;100.00;99676.44;3610295;39;20419;-65
2023/12/21 09:22:09;;;;;;;5.57;3.13;;;;;;;10.93;100.00;99678.28;3606406;39;20050;-65
2023/12/21 09:24:38;;;;;;;6.38;2.42;;;;;;;10.97;100.00;99678.03;3607144;39;20063;-65
2023/12/21 09:27:04;;;;;;;7.50;2.53;;;;;;;10.98;100.00;99658.25;3608966;39;20063;-65
2023/12/21 09:29:30;;;;;;;8.18;2.25;;;;;;;11.01;100.00;99666.06;3609030;39;20055;-65
2023/12/21 09:31:57;;;;;;;6.63;2.20;;;;;;;10.95;100.00;99626.22;3611416;39;20333;-66
2023/12/21 09:34:22;;;;;;;6.15;1.90;;;;;;;11.02;100.00;99647.09;3607773;39;20381;-66
2023/12/21 09:36:48;;;;;;;5.97;2.33;;;;;;;11.03;100.00;99656.88;3607570;39;20039;-65
2023/12/21 09:39:14;;;;;;;6.75;1.85;;;;;;;11.06;100.00;99650.38;3612681;39;20054;-65
2023/12/21 09:41:40;;;;;;;7.55;2.33;;;;;;;11.06;100.00;99645.84;3608941;39;20051;-65
2023/12/21 09:44:06;;;;;;;5.63;1.80;;;;;;;11.06;100.00;99651.22;3607538;39;20062;-65
2023/12/21 09:46:39;;;;;;;7.68;1.90;;;;;;;11.09;100.00;99636.69;3610368;39;20128;-65
2023/12/21 09:49:10;;;;;;;5.57;1.58;;;;;;;11.17;100.00;99644.97;3606859;39;20309;-65
2023/12/21 09:51:37;;;;;;;6.50;1.70;;;;;;;11.20;100.00;99639.34;3609454;39;20120;-65
2023/12/21 09:54:04;;;;;;;5.20;1.85;;;;;;;11.23;100.00;99636.41;3607790;39;20119;-65
2023/12/21 09:56:32;;;;;;;5.18;1.33;;;;;;;11.30;100.00;99634.91;3609232;39;20127;-65
2023/12/21 09:59:00;;;;;;;8.80;1.67;;;;;;;11.34;100.00;99632.78;3605867;39;20047;-65
2023/12/21 10:01:26;;;;;;;8.38;1.73;;;;;;;11.36;99.71;99614.69;3606581;39;20155;-66
2023/12/21 10:03:52;;;;;;;4.80;1.42;;;;;;;11.45;99.13;99626.50;3606231;39;20048;-65
2023/12/21 10:06:18;;;;;;;5.38;1.58;;;;;;;11.49;98.65;99627.97;3611066;39;20042;-65
2023/12/21 10:08:44;;;;;;;8.05;2.35;;;;;;;11.52;98.70;99652.78;3604953;39;20054;-65
2023/12/21 10:11:10;;;;;;;6.10;1.60;;;;;;;11.56;98.77;99621.06;3608180;39;20120;-65
2023/12/21 10:13:35;;;;;;;10.60;1.85;;;;;;;11.61;98.49;99610.78;3609374;39;20081;-65
2023/12/21 10:16:03;;;;;;;8.70;1.65;;;;;;;11.67;97.82;99629.09;3605739;39;20058;-65
2023/12/21 10:18:30;;;;;;;7.63;1.65;;;;;;;11.72;97.68;99642.16;3605525;39;20334;-65
2023/12/21 10:20:57;;;;;;;8.65;1.90;;;;;;;11.68;97.24;99619.19;3606632;39;20396;-66
2023/12/21 10:23:25;;;;;;;8.82;1.70;;;;;;;11.80;96.59;99612.75;3609813;39;20152;-66
2023/12/21 10:25:54;;;;;;;7.55;2.22;;;;;;;11.83;96.93;99615.16;3610032;39;20051;-66
2023/12/21 10:28:24;;;;;;;10.65;1.98;;;;;;;11.81;97.22;99609.91;3609853;39;20049;-66
2023/12/21 10:30:58;;;;;;;9.43;1.95;;;;;;;11.85;97.30;99635.59;3606716;39;20046;-65
2023/12/21 10:33:28;;;;;;;6.88;1.80;;;;;;;11.88;97.37;99642.56;3608368;39;20081;-65
2023/12/21 10:35:54;;;;;;;6.13;1.98;;;;;;;11.85;97.00;99624.81;3598692;39;20047;-65
2023/12/21 10:38:21;;;;;;;5.30;1.88;;;;;;;11.86;97.28;99641.84;3607610;39;20089;-65
2023/12/21 10:40:47;;;;;;;6.10;1.52;;;;;;;11.83;97.66;99617.88;3608603;39;20050;-65
2023/12/21 10:43:17;;;;;;;7.35;1.80;;;;;;;11.89;97.84;99614.66;3609186;39;20063;-65
2023/12/21 10:45:45;;;;;;;5.05;1.58;;;;;;;11.90;97.95;99620.91;3606449;39;20054;-65
2023/12/21 10:48:19;;;;;;;5.25;1.50;;;;;;;11.96;98.35;99632.00;3607355;39;20407;-65
2023/12/21 10:50:47;;;;;;;10.40;1.85;;;;;;;11.79;97.86;99582.25;3608647;39;20047;-64
2023/12/21 10:53:14;;;;;;;8.90;1.92;;;;;;;11.99;97.19;99625.50;3609141;39;20055;-66
2023/12/21 10:55:41;;;;;;;5.50;1.45;;;;;;;11.91;97.92;99610.00;3610967;39;20055;-65
2023/12/21 10:58:08;;;;;;;6.22;1.70;;;;;;;11.90;98.63;99613.69;3605630;39;20128;-66
2023/12/21 11:00:34;;;;;;;7.88;1.42;;;;;;;11.87;99.33;99596.94;3608081;39;20047;-65
2023/12/21 11:03:02;;;;;;;5.43;1.48;;;;;;;11.83;99.79;99594.47;3606553;39;20294;-66
2023/12/21 11:05:31;;;;;;;4.95;1.40;;;;;;;11.85;100.00;99605.13;3607695;39;20047;-65
2023/12/21 11:08:00;;;;;;;7.65;1.67;;;;;;;11.89;100.00;99600.34;3609313;39;20083;-65
2023/12/21 11:10:26;;;;;;;6.40;1.65;;;;;;;11.89;100.00;99601.19;3607785;39;20120;-65
2023/12/21 11:12:52;;;;;;;5.70;1.75;;;;;;;11.92;99.74;99570.44;3607126;39;20640;-66
2023/12/21 11:15:20;;;;;;;7.50;1.58;;;;;;;11.96;99.70;99604.22;3607286;39;20055;-65
2023/12/21 11:18:11;;;;;;;5.97;1.33;;;;;;;11.95;99.07;99589.88;3606009;39;20047;-65